KNQX/NQX METAR and TAF weather

Enter ICAO airport designator
Station Type Date Time Source
KNQX METAR 2019/08/21 03:24 UTC NOAA

KNQX 210324Z AUTO 10011KT 4SM RA BKN031 BKN045 OVC075 27/23 A3008 RMK AO2 RAB01 P0021 T02720228 $


Station Type Date Time Source
KNQX Decoded METAR 2019/08/21 03:24 UTC NOAA

Station name not available
Aug 20, 2019 - 11:24 PM EDT / 2019.08.21 0324 UTC
Wind: from the E (100 degrees) at 13 MPH (11 KT):0
Visibility: 4 mile(s):0
Sky conditions: overcast
Weather: rain
Precipitation last hour: 0.21 inches
Temperature: 81.0 F (27.2 C)
Dew Point: 73.0 F (22.8 C)
Relative Humidity: 76%
Pressure (altimeter): 30.08 in. Hg (1018 hPa)
ob: KNQX 210324Z AUTO 10011KT 4SM RA BKN031 BKN045 OVC075 27/23 A3008 RMK AO2 RAB01 P0021 T02720228
cycle: 3

Station Type Date Time Source
KNQX TAF 2019/08/20 23:59 UTC NOAA

TAF KNQX 2023/2123 12012KT 9999 VCSH SCT025 BKN120 BKN250 QNH2998INS
FM210900 11008KT 9999 VCSH FEW025 SCT120 BKN250 QNH2994INS AUTOMATED SENSOR METWATCH 2102 TIL 2110 T28/2109Z T33/2119Z FN20056

Example: see airport list